createdAt,value
2022-11-04T00:02:22.608Z,26.90
2022-11-04T00:04:57.257Z,27.00
2022-11-04T00:07:46.902Z,27.20
2022-11-04T00:10:40.121Z,26.30
2022-11-04T00:13:12.705Z,30.20
2022-11-04T00:16:02.618Z,25.00
2022-11-04T00:18:37.590Z,26.60
2022-11-04T00:21:28.313Z,30.00
2022-11-04T00:24:17.760Z,27.50
2022-11-04T00:27:07.419Z,28.50
2022-11-04T00:29:39.870Z,30.40
2022-11-04T00:32:30.069Z,32.20
2022-11-04T00:35:02.645Z,32.10
2022-11-04T00:37:37.500Z,31.00
2022-11-04T00:40:13.601Z,31.40
2022-11-04T00:42:48.030Z,29.20
2022-11-04T00:45:20.631Z,30.90
2022-11-04T00:47:53.552Z,30.90
2022-11-04T00:50:26.071Z,33.70
2022-11-04T00:53:03.572Z,33.00
2022-11-04T00:55:36.090Z,35.20
2022-11-04T00:58:08.730Z,30.00
2022-11-04T01:00:41.721Z,36.40
2022-11-04T01:03:15.002Z,34.80
2022-11-04T01:05:47.608Z,27.50
2022-11-04T01:08:20.208Z,30.00
2022-11-04T01:10:52.672Z,33.50
2022-11-04T01:13:25.371Z,33.30
2022-11-04T01:15:59.255Z,36.20
2022-11-04T01:18:32.090Z,28.50
2022-11-04T01:21:06.942Z,29.00
2022-11-04T01:23:40.068Z,28.90
2022-11-04T01:26:14.755Z,27.60
2022-11-04T01:28:47.577Z,31.80
2022-11-04T01:31:25.287Z,31.40
2022-11-04T01:33:59.529Z,28.90
2022-11-04T01:36:32.121Z,28.20
2022-11-04T01:39:04.882Z,31.50
2022-11-04T01:41:37.840Z,27.90
2022-11-04T01:44:40.430Z,28.30
2022-11-04T01:47:19.352Z,31.30
2022-11-04T01:49:55.867Z,32.80
2022-11-04T01:52:35.959Z,29.80
2022-11-04T01:55:14.060Z,30.30
2022-11-04T01:57:50.459Z,28.20
2022-11-04T02:00:23.497Z,28.70
2022-11-04T02:03:01.031Z,28.60
2022-11-04T02:05:34.480Z,29.90
2022-11-04T02:08:09.198Z,26.60
2022-11-04T02:10:50.319Z,30.40
2022-11-04T02:13:22.771Z,28.60
2022-11-04T02:16:05.665Z,26.70
2022-11-04T02:18:57.718Z,27.10
2022-11-04T02:22:03.677Z,27.00
2022-11-04T02:25:05.918Z,31.50
2022-11-04T02:27:58.806Z,26.50
2022-11-04T02:30:38.218Z,27.50
2022-11-04T02:33:24.467Z,27.00
2022-11-04T02:36:05.810Z,24.50
2022-11-04T02:38:47.097Z,23.60
2022-11-04T02:41:31.997Z,24.60
2022-11-04T02:44:16.160Z,23.80
2022-11-04T02:46:54.727Z,26.90
2022-11-04T02:49:34.977Z,24.00
2022-11-04T02:52:09.958Z,25.70
2022-11-04T02:54:46.286Z,24.40
2022-11-04T02:57:23.897Z,20.70
2022-11-04T03:00:01.717Z,25.20
2022-11-04T03:02:39.445Z,26.70
2022-11-04T03:05:16.289Z,21.30
2022-11-04T03:07:52.910Z,24.80
2022-11-04T03:10:30.047Z,26.10
2022-11-04T03:13:07.686Z,26.90
2022-11-04T03:15:44.060Z,27.80
2022-11-04T03:18:24.956Z,25.50
2022-11-04T03:21:03.110Z,23.10
2022-11-04T03:23:36.182Z,26.10
2022-11-04T03:26:15.507Z,30.10
2022-11-04T03:29:21.047Z,25.50
2022-11-04T03:32:03.487Z,28.30
2022-11-04T03:34:36.644Z,24.30
2022-11-04T03:37:11.051Z,24.40
2022-11-04T03:39:43.887Z,26.70
2022-11-04T03:42:24.076Z,23.50
2022-11-04T03:44:58.207Z,26.40
2022-11-04T03:47:32.050Z,27.60
2022-11-04T03:50:08.877Z,25.00
2022-11-04T03:52:41.709Z,29.40
2022-11-04T03:55:14.777Z,26.00
2022-11-04T03:57:54.277Z,25.00
2022-11-04T04:00:31.097Z,24.90
2022-11-04T04:03:12.387Z,27.30
2022-11-04T04:05:52.049Z,26.50
2022-11-04T04:08:38.186Z,28.50
2022-11-04T04:11:18.527Z,26.10
2022-11-04T04:14:01.036Z,25.70
2022-11-04T04:16:38.188Z,26.30
2022-11-04T04:19:15.478Z,27.50
2022-11-04T04:21:51.068Z,29.60
2022-11-04T04:24:48.736Z,27.10
2022-11-04T04:27:35.806Z,26.00
2022-11-04T04:30:11.217Z,28.10
2022-11-04T04:32:46.570Z,27.60
2022-11-04T04:35:45.634Z,29.10
2022-11-04T04:38:40.858Z,22.90
2022-11-04T04:41:36.597Z,26.10
2022-11-04T04:44:33.167Z,26.70
2022-11-04T04:47:09.571Z,26.80
2022-11-04T04:49:53.138Z,25.80
2022-11-04T04:52:28.266Z,25.70
2022-11-04T04:55:00.895Z,27.70
2022-11-04T04:57:33.566Z,25.40
2022-11-04T05:00:08.218Z,26.20
2022-11-04T05:02:40.533Z,24.70
2022-11-04T05:07:47.777Z,26.20
2022-11-04T05:10:21.437Z,23.20
2022-11-04T05:13:11.247Z,22.50
2022-11-04T05:15:44.098Z,23.10
2022-11-04T05:18:17.118Z,22.30
2022-11-04T05:20:49.568Z,23.10
2022-11-04T05:23:22.049Z,22.10
2022-11-04T05:25:54.998Z,23.50
2022-11-04T05:28:27.632Z,22.20
2022-11-04T05:31:00.479Z,24.20
2022-11-04T05:33:33.306Z,24.60
2022-11-04T05:36:17.154Z,23.30
2022-11-04T05:38:55.889Z,20.10
2022-11-04T05:41:29.018Z,18.60
2022-11-04T05:44:03.380Z,20.60
2022-11-04T05:46:36.308Z,17.20
2022-11-04T05:49:10.742Z,19.20
2022-11-04T05:51:43.904Z,18.30
2022-11-04T05:54:17.149Z,18.90
2022-11-04T05:56:49.630Z,17.20
2022-11-04T05:59:22.189Z,17.70
2022-11-04T06:01:54.895Z,18.40
2022-11-04T06:04:27.576Z,16.80
2022-11-04T06:07:00.118Z,21.70
2022-11-04T06:09:40.511Z,19.70
2022-11-04T06:12:16.163Z,19.20
2022-11-04T06:14:49.106Z,21.00
2022-11-04T06:17:24.381Z,19.30
2022-11-04T06:19:56.888Z,18.20
2022-11-04T06:22:29.940Z,20.00
2022-11-04T06:25:02.589Z,19.40
2022-11-04T06:27:35.471Z,17.60
2022-11-04T06:30:09.852Z,20.00
2022-11-04T06:32:44.905Z,19.80
2022-11-04T06:35:17.760Z,19.10
2022-11-04T06:37:50.429Z,18.50
2022-11-04T06:40:23.428Z,18.10
2022-11-04T06:42:56.327Z,16.20
2022-11-04T06:45:29.149Z,22.10
2022-11-04T06:48:01.959Z,22.40
2022-11-04T06:50:35.370Z,16.90
2022-11-04T06:53:08.205Z,19.50
2022-11-04T06:55:41.410Z,17.20
2022-11-04T06:58:14.020Z,17.60
2022-11-04T07:00:52.015Z,18.80
2022-11-04T07:03:26.098Z,16.70
2022-11-04T07:05:58.859Z,16.60
2022-11-04T07:08:31.730Z,14.80
2022-11-04T07:11:05.088Z,23.50
2022-11-04T07:13:37.645Z,16.00
2022-11-04T07:16:12.130Z,17.40
2022-11-04T07:18:45.189Z,16.20
2022-11-04T07:21:18.264Z,15.60
2022-11-04T07:23:50.651Z,16.60
2022-11-04T07:26:23.610Z,15.00
2022-11-04T07:29:00.379Z,15.20
2022-11-04T07:31:34.103Z,16.00
2022-11-04T07:34:06.804Z,17.20
2022-11-04T07:36:39.619Z,15.50
2022-11-04T07:39:11.953Z,16.90
2022-11-04T07:41:45.199Z,16.20
2022-11-04T07:44:17.909Z,16.80
2022-11-04T07:46:50.882Z,16.20
2022-11-04T07:49:23.520Z,16.50
2022-11-04T07:51:56.364Z,17.30
2022-11-04T07:54:29.257Z,17.00
2022-11-04T07:57:02.271Z,17.70
2022-11-04T07:59:35.430Z,17.10
2022-11-04T08:02:08.805Z,18.50
2022-11-04T08:04:42.905Z,19.20
2022-11-04T08:07:15.620Z,16.60
2022-11-04T08:09:48.423Z,17.80
2022-11-04T08:12:24.198Z,21.60
2022-11-04T08:14:57.224Z,18.50
2022-11-04T08:17:30.999Z,19.00
2022-11-04T08:20:03.621Z,18.20
2022-11-04T08:22:37.906Z,18.90
2022-11-04T08:25:14.202Z,15.60
2022-11-04T08:27:49.689Z,17.10
2022-11-04T08:30:22.400Z,17.20
2022-11-04T08:32:58.919Z,18.00
2022-11-04T08:35:31.660Z,18.50
2022-11-04T08:38:04.729Z,16.30
2022-11-04T08:40:37.760Z,17.80
2022-11-04T08:43:10.993Z,17.30
2022-11-04T08:45:47.036Z,12.70
2022-11-04T08:48:19.920Z,20.10
2022-11-04T08:50:55.449Z,18.70
2022-11-04T08:53:28.822Z,17.00
2022-11-04T08:56:01.398Z,16.00
2022-11-04T08:58:35.230Z,14.20
2022-11-04T09:01:08.779Z,18.00
2022-11-04T09:03:44.558Z,18.10
2022-11-04T09:06:23.411Z,17.20
2022-11-04T09:08:58.763Z,19.00
2022-11-04T09:11:32.179Z,17.10
2022-11-04T09:14:06.400Z,17.70
2022-11-04T09:16:39.621Z,14.70
2022-11-04T09:19:13.931Z,15.10
2022-11-04T09:21:47.881Z,16.60
2022-11-04T09:24:20.579Z,14.50
2022-11-04T09:26:53.480Z,16.00
2022-11-04T09:29:31.562Z,18.20
2022-11-04T09:32:04.637Z,13.10
2022-11-04T09:34:37.680Z,16.10
2022-11-04T09:37:10.909Z,13.40
2022-11-04T09:39:43.607Z,14.40
2022-11-04T09:42:36.740Z,15.90
2022-11-04T09:45:21.646Z,16.00
2022-11-04T09:47:59.907Z,15.70
2022-11-04T09:50:34.871Z,15.50
2022-11-04T09:53:18.145Z,13.60
2022-11-04T09:55:56.330Z,14.10
2022-11-04T09:58:29.869Z,13.60
2022-11-04T10:01:08.344Z,13.90
2022-11-04T10:03:55.389Z,15.50
2022-11-04T10:06:39.460Z,12.80
2022-11-04T10:09:32.139Z,14.80
2022-11-04T10:12:18.250Z,13.50
2022-11-04T10:15:24.467Z,13.40
2022-11-04T10:18:09.636Z,13.50
2022-11-04T10:20:51.779Z,11.30
2022-11-04T10:23:30.641Z,12.10
2022-11-04T10:26:09.919Z,8.80
2022-11-04T10:28:46.961Z,11.70
2022-11-04T10:31:21.218Z,11.00
2022-11-04T10:33:58.120Z,12.50
2022-11-04T10:36:31.439Z,10.00
2022-11-04T10:39:15.060Z,10.40
2022-11-04T10:41:49.339Z,10.40
2022-11-04T10:44:26.421Z,10.30
2022-11-04T10:47:09.964Z,11.50
2022-11-04T10:50:26.584Z,11.70
2022-11-04T10:52:48.720Z,10.20
2022-11-04T10:55:38.085Z,11.70
2022-11-04T10:58:18.779Z,10.00
2022-11-04T11:00:52.200Z,8.80
2022-11-04T11:03:34.041Z,10.40
2022-11-04T11:06:26.379Z,7.80
2022-11-04T11:09:01.844Z,9.70
2022-11-04T11:11:47.772Z,9.20
2022-11-04T11:14:35.919Z,11.40
2022-11-04T11:17:37.902Z,8.00
2022-11-04T11:20:24.558Z,11.90
2022-11-04T11:23:01.896Z,9.80
2022-11-04T11:25:42.832Z,9.10
2022-11-04T11:28:23.939Z,12.90
2022-11-04T11:31:04.633Z,12.70
2022-11-04T11:33:39.430Z,14.10
2022-11-04T11:36:19.630Z,10.10
2022-11-04T11:39:06.314Z,10.20
2022-11-04T11:41:53.436Z,10.40
2022-11-04T11:44:33.258Z,12.70
2022-11-04T11:47:09.891Z,9.70
2022-11-04T11:49:42.850Z,12.70
2022-11-04T11:52:33.546Z,11.10
2022-11-04T11:55:14.089Z,10.90
2022-11-04T12:01:02.108Z,12.70
2022-11-04T12:09:49.798Z,16.20
2022-11-04T12:12:37.660Z,10.40
2022-11-04T12:15:34.006Z,9.80
2022-11-04T12:18:32.701Z,10.70
2022-11-04T12:21:16.369Z,14.20
2022-11-04T12:23:55.899Z,10.20
2022-11-04T12:26:36.840Z,13.70
2022-11-04T12:29:30.188Z,9.80
2022-11-04T12:32:10.789Z,10.90
2022-11-04T12:34:56.614Z,12.40
2022-11-04T12:37:39.879Z,13.20
2022-11-04T12:40:22.260Z,10.40
2022-11-04T12:43:05.959Z,11.00
2022-11-04T12:45:50.864Z,13.30
2022-11-04T12:48:43.720Z,11.20
2022-11-04T12:51:26.460Z,14.00
2022-11-04T12:54:25.810Z,11.50
2022-11-04T12:57:12.250Z,10.80
2022-11-04T13:00:01.490Z,12.80
2022-11-04T13:02:40.127Z,12.50
2022-11-04T13:05:25.659Z,14.00
2022-11-04T13:08:09.910Z,11.30
2022-11-04T13:10:49.979Z,14.00
2022-11-04T13:13:28.938Z,13.30
2022-11-04T13:16:04.389Z,14.70
2022-11-04T13:18:39.370Z,12.00
2022-11-04T13:21:15.561Z,13.90
2022-11-04T13:23:53.199Z,14.70
2022-11-04T13:26:31.031Z,14.10
2022-11-04T13:29:09.162Z,14.50
2022-11-04T13:31:52.101Z,12.40
2022-11-04T13:34:36.390Z,12.70
2022-11-04T13:37:20.128Z,14.00
2022-11-04T13:39:57.348Z,13.30
2022-11-04T13:43:24.991Z,14.20
2022-11-04T13:45:59.195Z,13.40
2022-11-04T13:48:38.512Z,14.90
2022-11-04T13:51:13.518Z,13.40
2022-11-04T13:53:48.574Z,14.30
2022-11-04T13:56:38.018Z,12.40
2022-11-04T13:59:25.299Z,12.40
2022-11-04T14:02:38.180Z,15.10
2022-11-04T14:05:53.910Z,17.50
2022-11-04T14:08:28.491Z,15.10
2022-11-04T14:11:13.642Z,13.80
2022-11-04T14:14:06.079Z,19.80
2022-11-04T14:16:48.990Z,23.10
2022-11-04T14:20:01.623Z,22.60
2022-11-04T14:22:50.342Z,23.10
2022-11-04T14:25:29.697Z,18.20
2022-11-04T14:28:04.529Z,20.30
2022-11-04T14:30:46.852Z,17.60
2022-11-04T14:33:36.489Z,17.00
2022-11-04T14:36:34.874Z,21.60
2022-11-04T14:39:23.361Z,19.30
2022-11-04T14:42:02.349Z,17.90
2022-11-04T14:44:50.658Z,16.80
2022-11-04T14:47:27.447Z,18.90
2022-11-04T14:50:09.209Z,19.10
2022-11-04T14:52:52.529Z,18.70
2022-11-04T14:55:27.331Z,22.90
2022-11-04T14:58:02.031Z,21.40
2022-11-04T15:01:00.426Z,26.40
2022-11-04T15:09:27.781Z,29.90
2022-11-04T15:12:25.879Z,25.60
2022-11-04T15:15:00.418Z,23.50
2022-11-04T15:17:35.835Z,27.70
2022-11-04T15:20:23.620Z,24.60
2022-11-04T15:22:57.661Z,25.80
2022-11-04T15:25:31.060Z,26.40
2022-11-04T15:28:06.389Z,24.20
2022-11-04T15:30:39.450Z,30.20
2022-11-04T15:33:22.427Z,26.80
2022-11-04T15:35:56.720Z,26.50
2022-11-04T15:38:30.871Z,26.00
2022-11-04T15:41:19.231Z,28.10
2022-11-04T15:43:52.669Z,27.50
2022-11-04T15:46:32.641Z,26.60
2022-11-04T15:49:09.383Z,27.10
2022-11-04T15:52:00.096Z,31.30
2022-11-04T15:54:40.268Z,28.30
2022-11-04T15:57:18.927Z,29.70
2022-11-04T15:59:57.499Z,24.60
2022-11-04T16:02:33.502Z,29.90
2022-11-04T16:05:22.950Z,30.20
2022-11-04T16:08:00.190Z,28.50
2022-11-04T16:10:34.652Z,27.50
2022-11-04T16:13:26.400Z,33.60
2022-11-04T16:16:19.441Z,30.10
2022-11-04T16:18:58.080Z,26.50
2022-11-04T16:21:35.006Z,24.10
2022-11-04T16:24:17.287Z,25.20
2022-11-04T16:26:52.640Z,30.40
2022-11-04T16:29:27.723Z,27.10
2022-11-04T16:32:22.320Z,28.70
2022-11-04T16:34:58.419Z,33.40
2022-11-04T16:37:32.921Z,33.30
2022-11-04T16:40:07.945Z,30.00
2022-11-04T16:42:41.130Z,32.20
2022-11-04T16:47:52.066Z,36.30
2022-11-04T16:50:26.139Z,34.50
2022-11-04T16:53:00.709Z,31.00
2022-11-04T16:55:33.931Z,33.40
2022-11-04T16:58:07.610Z,30.50
2022-11-04T17:00:40.140Z,32.00
2022-11-04T17:03:22.119Z,36.50
2022-11-04T17:05:57.019Z,37.40
2022-11-04T17:08:31.900Z,30.50
2022-11-04T17:11:04.581Z,36.20
2022-11-04T17:13:37.590Z,37.70
2022-11-04T17:16:16.590Z,34.50
2022-11-04T17:18:54.683Z,33.80
2022-11-04T17:21:29.724Z,32.80
2022-11-04T17:24:03.649Z,31.20
2022-11-04T17:26:36.441Z,33.50
2022-11-04T17:29:14.411Z,31.10
2022-11-04T17:31:50.910Z,34.40
2022-11-04T17:34:26.274Z,36.60
2022-11-04T17:36:59.618Z,36.00
2022-11-04T17:39:34.723Z,39.40
2022-11-04T17:42:34.369Z,38.20
2022-11-04T17:45:08.925Z,31.40
2022-11-04T17:47:41.680Z,34.30
2022-11-04T17:50:15.909Z,34.20
2022-11-04T17:52:49.432Z,37.30
2022-11-04T17:55:27.361Z,40.10
2022-11-04T17:58:01.140Z,34.70
2022-11-04T18:00:37.060Z,33.30
2022-11-04T18:03:12.717Z,29.50
2022-11-04T18:05:46.681Z,34.00
2022-11-04T18:08:19.239Z,27.20
2022-11-04T18:10:51.812Z,30.60
2022-11-04T18:13:24.560Z,29.10
2022-11-04T18:15:58.061Z,30.40
2022-11-04T18:18:31.002Z,33.90
2022-11-04T18:21:08.792Z,32.00
2022-11-04T18:23:41.303Z,30.10
2022-11-04T18:26:14.533Z,31.90
2022-11-04T18:28:47.898Z,29.30
2022-11-04T18:31:24.787Z,30.10
2022-11-04T18:34:00.499Z,29.30
2022-11-04T18:36:35.460Z,31.40
2022-11-04T18:39:08.981Z,31.20
2022-11-04T18:41:43.739Z,28.00
2022-11-04T18:44:19.179Z,31.80
2022-11-04T18:46:53.777Z,32.30
2022-11-04T18:49:31.816Z,30.90
2022-11-04T18:52:08.766Z,31.00
2022-11-04T18:54:43.518Z,32.60
2022-11-04T18:57:19.232Z,32.40
2022-11-04T18:59:53.110Z,32.80
2022-11-04T19:02:36.717Z,36.20
2022-11-04T19:05:11.842Z,35.20
2022-11-04T19:07:50.220Z,29.60
2022-11-04T19:10:22.940Z,27.00
2022-11-04T19:13:15.640Z,30.40
2022-11-04T19:15:50.467Z,30.90
2022-11-04T19:18:28.090Z,34.60
2022-11-04T19:21:13.177Z,32.40
2022-11-04T19:23:52.855Z,34.50
2022-11-04T19:26:33.958Z,27.90
2022-11-04T19:29:11.050Z,33.00
2022-11-04T19:31:48.622Z,29.20
2022-11-04T19:34:21.430Z,29.90
2022-11-04T19:36:59.740Z,31.10
2022-11-04T19:39:33.507Z,31.80
2022-11-04T19:42:24.058Z,31.50
2022-11-04T19:44:56.850Z,31.10
2022-11-04T19:47:31.390Z,32.50
2022-11-04T19:50:08.784Z,31.60
2022-11-04T19:52:46.413Z,37.20
2022-11-04T19:55:19.999Z,27.90
2022-11-04T19:57:54.130Z,33.00
2022-11-04T20:00:31.392Z,30.50
2022-11-04T20:03:06.235Z,28.70
2022-11-04T20:05:46.870Z,34.80
2022-11-04T20:08:20.938Z,32.00
2022-11-04T20:10:56.979Z,30.90
2022-11-04T20:13:48.292Z,32.50
2022-11-04T20:16:25.789Z,32.70
2022-11-04T20:19:03.602Z,30.20
2022-11-04T20:21:40.795Z,32.60
2022-11-04T20:24:22.651Z,30.40
2022-11-04T20:26:58.250Z,30.90
2022-11-04T20:29:35.382Z,31.20
2022-11-04T20:32:09.849Z,36.20
2022-11-04T20:34:43.132Z,34.40
2022-11-04T20:37:15.760Z,31.40
2022-11-04T20:39:51.857Z,28.80
2022-11-04T20:42:24.730Z,31.00
2022-11-04T20:45:00.189Z,28.90
2022-11-04T20:47:33.929Z,32.00
2022-11-04T20:50:08.312Z,31.90
2022-11-04T20:52:40.850Z,30.60
2022-11-04T20:55:15.111Z,30.40
2022-11-04T20:57:57.241Z,33.30
2022-11-04T21:00:30.482Z,27.80
2022-11-04T21:03:02.953Z,30.60
2022-11-04T21:05:35.920Z,28.80
2022-11-04T21:08:10.136Z,27.10
2022-11-04T21:10:43.220Z,30.50
2022-11-04T21:13:16.140Z,30.60
2022-11-04T21:15:52.502Z,34.80
2022-11-04T21:18:26.737Z,33.40
2022-11-04T21:21:04.790Z,28.10
2022-11-04T21:23:38.847Z,30.50
2022-11-04T21:26:13.990Z,29.50
2022-11-04T21:28:46.460Z,31.60
2022-11-04T21:31:21.211Z,30.40
2022-11-04T21:33:58.735Z,33.60
2022-11-04T21:36:31.815Z,32.40
2022-11-04T21:39:04.563Z,34.90
2022-11-04T21:41:38.249Z,30.90
2022-11-04T21:44:13.486Z,35.70
2022-11-04T21:46:46.179Z,34.20
2022-11-04T21:49:19.211Z,29.30
2022-11-04T21:51:54.051Z,51.90
2022-11-04T21:54:29.380Z,28.50
2022-11-04T21:57:02.012Z,31.30
2022-11-04T21:59:34.620Z,33.10
2022-11-04T22:02:07.542Z,32.70
2022-11-04T22:04:40.400Z,33.30
2022-11-04T22:07:12.999Z,33.50
2022-11-04T22:09:49.199Z,34.50
2022-11-04T22:12:21.771Z,37.60
2022-11-04T22:14:54.320Z,37.30
2022-11-04T22:17:26.884Z,38.10
2022-11-04T22:19:59.542Z,32.70
2022-11-04T22:22:32.831Z,36.60
2022-11-04T22:25:07.666Z,35.10
2022-11-04T22:27:40.319Z,32.70
2022-11-04T22:30:15.950Z,34.60
2022-11-04T22:32:48.779Z,32.90
2022-11-04T22:35:22.008Z,39.00
2022-11-04T22:37:55.058Z,36.50
2022-11-04T22:40:30.379Z,40.70
2022-11-04T22:43:03.320Z,38.30
2022-11-04T22:45:36.159Z,37.00
2022-11-04T22:48:09.459Z,39.50
2022-11-04T22:50:41.959Z,36.50
2022-11-04T22:53:16.477Z,36.30
2022-11-04T22:55:49.281Z,37.40
2022-11-04T22:58:24.459Z,34.80
2022-11-04T23:01:01.203Z,35.90
2022-11-04T23:03:34.785Z,32.80
2022-11-04T23:08:41.749Z,32.00
2022-11-04T23:11:36.566Z,31.50
2022-11-04T23:14:38.390Z,33.60
2022-11-04T23:17:34.071Z,32.80
2022-11-04T23:20:10.730Z,34.60
2022-11-04T23:23:01.071Z,32.40
2022-11-04T23:25:34.410Z,34.80
2022-11-04T23:28:24.320Z,33.80
2022-11-04T23:30:59.723Z,33.60
2022-11-04T23:33:50.020Z,34.70
2022-11-04T23:36:39.910Z,39.80
2022-11-04T23:39:12.289Z,37.30
2022-11-04T23:42:07.900Z,42.00
2022-11-04T23:44:57.670Z,39.80
2022-11-04T23:47:47.402Z,36.30
2022-11-04T23:50:37.638Z,34.40
2022-11-04T23:53:30.549Z,37.20
2022-11-04T23:56:20.079Z,34.80
2022-11-04T23:59:09.470Z,36.20
